sensor_id;sensor_type;location;lat;lon;timestamp;temperature;humidity
19945;DHT22;10134;50.952;6.930;2023-08-21T00:00:26;23.60;99.90
19945;DHT22;10134;50.952;6.930;2023-08-21T00:02:53;23.60;99.90
19945;DHT22;10134;50.952;6.930;2023-08-21T00:05:20;23.60;99.90
19945;DHT22;10134;50.952;6.930;2023-08-21T00:07:48;23.60;99.90
19945;DHT22;10134;50.952;6.930;2023-08-21T00:10:18;23.50;99.90
19945;DHT22;10134;50.952;6.930;2023-08-21T00:12:45;23.50;99.90
19945;DHT22;10134;50.952;6.930;2023-08-21T00:15:12;23.50;99.90
19945;DHT22;10134;50.952;6.930;2023-08-21T00:17:40;23.50;99.90
19945;DHT22;10134;50.952;6.930;2023-08-21T00:20:07;23.50;99.90
19945;DHT22;10134;50.952;6.930;2023-08-21T00:22:36;23.50;99.90
19945;DHT22;10134;50.952;6.930;2023-08-21T00:25:05;23.40;99.90
19945;DHT22;10134;50.952;6.930;2023-08-21T00:27:32;23.40;99.90
19945;DHT22;10134;50.952;6.930;2023-08-21T00:30:00;23.40;99.90
19945;DHT22;10134;50.952;6.930;2023-08-21T00:32:28;23.30;99.90
19945;DHT22;10134;50.952;6.930;2023-08-21T00:34:55;23.30;99.90
19945;DHT22;10134;50.952;6.930;2023-08-21T00:37:23;23.30;99.90
19945;DHT22;10134;50.952;6.930;2023-08-21T00:39:50;23.20;99.90
19945;DHT22;10134;50.952;6.930;2023-08-21T00:42:17;23.20;99.90
19945;DHT22;10134;50.952;6.930;2023-08-21T00:44:45;23.20;99.90
19945;DHT22;10134;50.952;6.930;2023-08-21T00:47:12;23.20;99.90
19945;DHT22;10134;50.952;6.930;2023-08-21T00:49:39;23.20;99.90
19945;DHT22;10134;50.952;6.930;2023-08-21T00:52:08;23.20;99.90
19945;DHT22;10134;50.952;6.930;2023-08-21T00:54:37;23.20;99.90
19945;DHT22;10134;50.952;6.930;2023-08-21T00:57:05;23.10;99.90
19945;DHT22;10134;50.952;6.930;2023-08-21T00:59:33;23.10;99.90
19945;DHT22;10134;50.952;6.930;2023-08-21T01:02:01;23.10;99.90
19945;DHT22;10134;50.952;6.930;2023-08-21T01:04:28;23.00;99.90
19945;DHT22;10134;50.952;6.930;2023-08-21T01:06:57;23.00;99.90
19945;DHT22;10134;50.952;6.930;2023-08-21T01:09:33;23.00;99.90
19945;DHT22;10134;50.952;6.930;2023-08-21T01:12:11;23.00;99.90
19945;DHT22;10134;50.952;6.930;2023-08-21T01:14:58;22.90;99.90
19945;DHT22;10134;50.952;6.930;2023-08-21T01:17:27;22.90;99.90
19945;DHT22;10134;50.952;6.930;2023-08-21T01:19:56;22.80;99.90
19945;DHT22;10134;50.952;6.930;2023-08-21T01:22:27;22.80;99.90
19945;DHT22;10134;50.952;6.930;2023-08-21T01:24:55;22.80;99.90
19945;DHT22;10134;50.952;6.930;2023-08-21T01:27:22;22.70;99.90
19945;DHT22;10134;50.952;6.930;2023-08-21T01:29:50;22.60;99.90
19945;DHT22;10134;50.952;6.930;2023-08-21T01:32:27;22.60;99.90
19945;DHT22;10134;50.952;6.930;2023-08-21T01:34:59;22.50;99.90
19945;DHT22;10134;50.952;6.930;2023-08-21T01:37:30;22.50;99.90
19945;DHT22;10134;50.952;6.930;2023-08-21T01:40:00;22.40;99.90
19945;DHT22;10134;50.952;6.930;2023-08-21T01:42:28;22.40;99.90
19945;DHT22;10134;50.952;6.930;2023-08-21T01:44:55;22.40;99.90
19945;DHT22;10134;50.952;6.930;2023-08-21T01:47:22;22.40;99.90
19945;DHT22;10134;50.952;6.930;2023-08-21T01:49:50;22.40;99.90
19945;DHT22;10134;50.952;6.930;2023-08-21T01:52:19;22.40;99.90
19945;DHT22;10134;50.952;6.930;2023-08-21T01:54:50;22.40;99.90
19945;DHT22;10134;50.952;6.930;2023-08-21T01:57:17;22.40;99.90
19945;DHT22;10134;50.952;6.930;2023-08-21T01:59:45;22.30;99.90
19945;DHT22;10134;50.952;6.930;2023-08-21T02:02:12;22.30;99.90
19945;DHT22;10134;50.952;6.930;2023-08-21T02:04:39;22.30;99.90
19945;DHT22;10134;50.952;6.930;2023-08-21T02:07:07;22.30;99.90
19945;DHT22;10134;50.952;6.930;2023-08-21T02:09:34;22.30;99.90
19945;DHT22;10134;50.952;6.930;2023-08-21T02:12:02;22.30;99.90
19945;DHT22;10134;50.952;6.930;2023-08-21T02:14:29;22.20;99.90
19945;DHT22;10134;50.952;6.930;2023-08-21T02:16:56;22.20;99.90
19945;DHT22;10134;50.952;6.930;2023-08-21T02:19:24;22.20;99.90
19945;DHT22;10134;50.952;6.930;2023-08-21T02:21:51;22.20;99.90
19945;DHT22;10134;50.952;6.930;2023-08-21T02:24:18;22.20;99.90
19945;DHT22;10134;50.952;6.930;2023-08-21T02:26:46;22.20;99.90
19945;DHT22;10134;50.952;6.930;2023-08-21T02:29:13;22.20;99.90
19945;DHT22;10134;50.952;6.930;2023-08-21T02:31:42;22.20;99.90
19945;DHT22;10134;50.952;6.930;2023-08-21T02:34:09;22.20;99.90
19945;DHT22;10134;50.952;6.930;2023-08-21T02:36:36;22.20;99.90
19945;DHT22;10134;50.952;6.930;2023-08-21T02:39:04;22.10;99.90
19945;DHT22;10134;50.952;6.930;2023-08-21T02:41:32;22.10;99.90
19945;DHT22;10134;50.952;6.930;2023-08-21T02:44:00;22.10;99.90
19945;DHT22;10134;50.952;6.930;2023-08-21T02:46:27;22.10;99.90
19945;DHT22;10134;50.952;6.930;2023-08-21T02:48:55;22.10;99.90
19945;DHT22;10134;50.952;6.930;2023-08-21T02:51:23;22.00;99.90
19945;DHT22;10134;50.952;6.930;2023-08-21T02:53:50;22.00;99.90
19945;DHT22;10134;50.952;6.930;2023-08-21T02:56:18;22.00;99.90
19945;DHT22;10134;50.952;6.930;2023-08-21T02:58:45;22.00;99.90
19945;DHT22;10134;50.952;6.930;2023-08-21T03:01:13;22.00;99.90
19945;DHT22;10134;50.952;6.930;2023-08-21T03:03:40;22.00;99.90
19945;DHT22;10134;50.952;6.930;2023-08-21T03:06:08;22.00;99.90
19945;DHT22;10134;50.952;6.930;2023-08-21T03:08:36;22.10;99.90
19945;DHT22;10134;50.952;6.930;2023-08-21T03:11:04;22.10;99.90
19945;DHT22;10134;50.952;6.930;2023-08-21T03:13:33;22.10;99.90
19945;DHT22;10134;50.952;6.930;2023-08-21T03:16:00;22.10;99.90
19945;DHT22;10134;50.952;6.930;2023-08-21T03:18:31;22.00;99.90
19945;DHT22;10134;50.952;6.930;2023-08-21T03:20:59;22.00;99.90
19945;DHT22;10134;50.952;6.930;2023-08-21T03:23:27;22.00;99.90
19945;DHT22;10134;50.952;6.930;2023-08-21T03:25:55;22.00;99.90
19945;DHT22;10134;50.952;6.930;2023-08-21T03:28:22;22.00;99.90
19945;DHT22;10134;50.952;6.930;2023-08-21T03:30:49;22.00;99.90
19945;DHT22;10134;50.952;6.930;2023-08-21T03:33:17;22.00;99.90
19945;DHT22;10134;50.952;6.930;2023-08-21T03:35:44;22.00;99.90
19945;DHT22;10134;50.952;6.930;2023-08-21T03:38:12;22.00;99.90
19945;DHT22;10134;50.952;6.930;2023-08-21T03:40:44;22.00;99.90
19945;DHT22;10134;50.952;6.930;2023-08-21T03:43:11;22.00;99.90
19945;DHT22;10134;50.952;6.930;2023-08-21T03:45:39;22.10;99.90
19945;DHT22;10134;50.952;6.930;2023-08-21T03:48:07;22.10;99.90
19945;DHT22;10134;50.952;6.930;2023-08-21T03:50:34;22.10;99.90
19945;DHT22;10134;50.952;6.930;2023-08-21T03:53:02;22.00;99.90
19945;DHT22;10134;50.952;6.930;2023-08-21T03:55:29;22.00;99.90
19945;DHT22;10134;50.952;6.930;2023-08-21T03:57:56;22.00;99.90
19945;DHT22;10134;50.952;6.930;2023-08-21T04:00:24;21.90;99.90
19945;DHT22;10134;50.952;6.930;2023-08-21T04:02:51;21.90;99.90
19945;DHT22;10134;50.952;6.930;2023-08-21T04:05:18;21.90;99.90
19945;DHT22;10134;50.952;6.930;2023-08-21T04:07:46;21.90;99.90
19945;DHT22;10134;50.952;6.930;2023-08-21T04:10:14;21.90;99.90
19945;DHT22;10134;50.952;6.930;2023-08-21T04:12:41;21.90;99.90
19945;DHT22;10134;50.952;6.930;2023-08-21T04:15:09;21.80;99.90
19945;DHT22;10134;50.952;6.930;2023-08-21T04:17:36;21.80;99.90
19945;DHT22;10134;50.952;6.930;2023-08-21T04:20:04;21.80;99.90
19945;DHT22;10134;50.952;6.930;2023-08-21T04:22:34;21.80;99.90
19945;DHT22;10134;50.952;6.930;2023-08-21T04:25:01;21.70;99.90
19945;DHT22;10134;50.952;6.930;2023-08-21T04:27:28;21.70;99.90
19945;DHT22;10134;50.952;6.930;2023-08-21T04:29:56;21.80;99.90
19945;DHT22;10134;50.952;6.930;2023-08-21T04:32:23;21.80;99.90
19945;DHT22;10134;50.952;6.930;2023-08-21T04:34:50;21.80;99.90
19945;DHT22;10134;50.952;6.930;2023-08-21T04:37:18;21.80;99.90
19945;DHT22;10134;50.952;6.930;2023-08-21T04:39:46;21.70;99.90
19945;DHT22;10134;50.952;6.930;2023-08-21T04:42:13;21.70;99.90
19945;DHT22;10134;50.952;6.930;2023-08-21T04:44:40;21.60;99.90
19945;DHT22;10134;50.952;6.930;2023-08-21T04:47:25;21.60;99.90
19945;DHT22;10134;50.952;6.930;2023-08-21T04:49:58;21.60;99.90
19945;DHT22;10134;50.952;6.930;2023-08-21T04:52:28;21.60;99.90
19945;DHT22;10134;50.952;6.930;2023-08-21T04:54:55;21.60;99.90
19945;DHT22;10134;50.952;6.930;2023-08-21T04:57:23;21.60;99.90
19945;DHT22;10134;50.952;6.930;2023-08-21T04:59:50;21.60;99.90
19945;DHT22;10134;50.952;6.930;2023-08-21T05:02:20;21.60;99.90
19945;DHT22;10134;50.952;6.930;2023-08-21T05:04:49;21.60;99.90
19945;DHT22;10134;50.952;6.930;2023-08-21T05:07:17;21.60;99.90
19945;DHT22;10134;50.952;6.930;2023-08-21T05:09:44;21.70;99.90
19945;DHT22;10134;50.952;6.930;2023-08-21T05:12:13;21.70;99.90
19945;DHT22;10134;50.952;6.930;2023-08-21T05:14:40;21.70;99.90
19945;DHT22;10134;50.952;6.930;2023-08-21T05:17:08;21.60;99.90
19945;DHT22;10134;50.952;6.930;2023-08-21T05:19:36;21.60;99.90
19945;DHT22;10134;50.952;6.930;2023-08-21T05:22:03;21.60;99.90
19945;DHT22;10134;50.952;6.930;2023-08-21T05:24:32;20.50;99.90
19945;DHT22;10134;50.952;6.930;2023-08-21T05:27:03;21.60;99.90
19945;DHT22;10134;50.952;6.930;2023-08-21T05:29:31;21.60;99.90
19945;DHT22;10134;50.952;6.930;2023-08-21T05:31:59;21.60;99.90
19945;DHT22;10134;50.952;6.930;2023-08-21T05:34:29;21.70;99.90
19945;DHT22;10134;50.952;6.930;2023-08-21T05:36:56;21.70;99.90
19945;DHT22;10134;50.952;6.930;2023-08-21T05:39:24;21.70;99.90
19945;DHT22;10134;50.952;6.930;2023-08-21T05:41:52;21.80;99.90
19945;DHT22;10134;50.952;6.930;2023-08-21T05:44:20;21.80;99.90
19945;DHT22;10134;50.952;6.930;2023-08-21T05:46:48;21.80;99.90
19945;DHT22;10134;50.952;6.930;2023-08-21T05:49:16;21.90;99.90
19945;DHT22;10134;50.952;6.930;2023-08-21T05:51:43;21.90;99.90
19945;DHT22;10134;50.952;6.930;2023-08-21T05:54:10;21.90;99.90
19945;DHT22;10134;50.952;6.930;2023-08-21T05:56:39;21.90;99.90
19945;DHT22;10134;50.952;6.930;2023-08-21T05:59:10;21.90;99.90
19945;DHT22;10134;50.952;6.930;2023-08-21T06:01:37;22.00;99.90
19945;DHT22;10134;50.952;6.930;2023-08-21T06:04:05;22.00;99.90
19945;DHT22;10134;50.952;6.930;2023-08-21T06:06:42;22.10;99.90
19945;DHT22;10134;50.952;6.930;2023-08-21T06:09:09;22.20;99.90
19945;DHT22;10134;50.952;6.930;2023-08-21T06:11:38;22.20;99.90
19945;DHT22;10134;50.952;6.930;2023-08-21T06:14:06;22.30;99.90
19945;DHT22;10134;50.952;6.930;2023-08-21T06:16:33;22.30;99.90
19945;DHT22;10134;50.952;6.930;2023-08-21T06:19:00;22.30;99.90
19945;DHT22;10134;50.952;6.930;2023-08-21T06:21:28;22.30;99.90
19945;DHT22;10134;50.952;6.930;2023-08-21T06:23:55;22.40;99.90
19945;DHT22;10134;50.952;6.930;2023-08-21T06:26:22;22.40;99.90
19945;DHT22;10134;50.952;6.930;2023-08-21T06:28:51;22.40;99.90
19945;DHT22;10134;50.952;6.930;2023-08-21T06:31:18;22.40;99.90
19945;DHT22;10134;50.952;6.930;2023-08-21T06:33:47;22.50;99.90
19945;DHT22;10134;50.952;6.930;2023-08-21T06:36:14;22.50;99.90
19945;DHT22;10134;50.952;6.930;2023-08-21T06:38:41;22.50;99.90
19945;DHT22;10134;50.952;6.930;2023-08-21T06:41:09;22.50;99.90
19945;DHT22;10134;50.952;6.930;2023-08-21T06:43:39;22.50;99.90
19945;DHT22;10134;50.952;6.930;2023-08-21T06:46:12;22.50;99.90
19945;DHT22;10134;50.952;6.930;2023-08-21T06:48:42;22.60;99.90
19945;DHT22;10134;50.952;6.930;2023-08-21T06:51:11;22.60;99.90
19945;DHT22;10134;50.952;6.930;2023-08-21T06:53:43;22.70;99.90
19945;DHT22;10134;50.952;6.930;2023-08-21T07:01:05;22.90;99.90
19945;DHT22;10134;50.952;6.930;2023-08-21T07:03:33;22.90;99.90
19945;DHT22;10134;50.952;6.930;2023-08-21T07:06:00;22.90;99.90
19945;DHT22;10134;50.952;6.930;2023-08-21T07:08:28;23.00;99.90
19945;DHT22;10134;50.952;6.930;2023-08-21T07:10:55;23.00;99.90
19945;DHT22;10134;50.952;6.930;2023-08-21T07:13:23;23.00;99.90
19945;DHT22;10134;50.952;6.930;2023-08-21T07:15:53;23.10;99.90
19945;DHT22;10134;50.952;6.930;2023-08-21T07:18:22;23.10;99.90
19945;DHT22;10134;50.952;6.930;2023-08-21T07:20:52;23.20;99.90
19945;DHT22;10134;50.952;6.930;2023-08-21T07:23:19;23.20;99.90
19945;DHT22;10134;50.952;6.930;2023-08-21T07:25:47;23.20;99.90
19945;DHT22;10134;50.952;6.930;2023-08-21T07:28:14;23.30;99.90
19945;DHT22;10134;50.952;6.930;2023-08-21T07:30:41;23.30;99.90
19945;DHT22;10134;50.952;6.930;2023-08-21T07:33:09;23.30;99.90
19945;DHT22;10134;50.952;6.930;2023-08-21T07:35:37;23.40;99.90
19945;DHT22;10134;50.952;6.930;2023-08-21T07:38:04;23.40;99.90
19945;DHT22;10134;50.952;6.930;2023-08-21T07:40:31;23.40;99.90
19945;DHT22;10134;50.952;6.930;2023-08-21T07:42:59;23.50;99.90
19945;DHT22;10134;50.952;6.930;2023-08-21T07:45:26;23.50;99.90
19945;DHT22;10134;50.952;6.930;2023-08-21T07:47:53;23.60;99.90
19945;DHT22;10134;50.952;6.930;2023-08-21T07:50:39;23.60;99.90
19945;DHT22;10134;50.952;6.930;2023-08-21T07:53:06;23.70;99.90
19945;DHT22;10134;50.952;6.930;2023-08-21T07:55:33;23.70;99.90
19945;DHT22;10134;50.952;6.930;2023-08-21T07:58:01;23.70;99.90
19945;DHT22;10134;50.952;6.930;2023-08-21T08:00:28;23.80;99.90
19945;DHT22;10134;50.952;6.930;2023-08-21T08:02:55;23.80;99.90
19945;DHT22;10134;50.952;6.930;2023-08-21T08:05:23;23.90;99.90
19945;DHT22;10134;50.952;6.930;2023-08-21T08:07:50;23.90;99.90
19945;DHT22;10134;50.952;6.930;2023-08-21T08:10:17;23.90;99.90
19945;DHT22;10134;50.952;6.930;2023-08-21T08:12:45;23.90;99.90
19945;DHT22;10134;50.952;6.930;2023-08-21T08:15:12;24.00;99.90
19945;DHT22;10134;50.952;6.930;2023-08-21T08:17:39;24.00;99.90
19945;DHT22;10134;50.952;6.930;2023-08-21T08:20:07;24.00;99.90
19945;DHT22;10134;50.952;6.930;2023-08-21T08:22:34;24.10;99.90
19945;DHT22;10134;50.952;6.930;2023-08-21T08:25:03;24.10;99.90
19945;DHT22;10134;50.952;6.930;2023-08-21T08:27:33;24.10;99.90
19945;DHT22;10134;50.952;6.930;2023-08-21T08:30:00;24.10;99.90
19945;DHT22;10134;50.952;6.930;2023-08-21T08:32:28;24.00;99.90
19945;DHT22;10134;50.952;6.930;2023-08-21T08:34:55;24.00;99.90
19945;DHT22;10134;50.952;6.930;2023-08-21T08:37:22;24.00;99.90
19945;DHT22;10134;50.952;6.930;2023-08-21T08:39:50;23.90;99.90
19945;DHT22;10134;50.952;6.930;2023-08-21T08:42:17;23.90;99.90
19945;DHT22;10134;50.952;6.930;2023-08-21T08:44:45;23.90;99.90
19945;DHT22;10134;50.952;6.930;2023-08-21T08:47:14;23.90;99.90
19945;DHT22;10134;50.952;6.930;2023-08-21T08:49:42;23.90;99.90
19945;DHT22;10134;50.952;6.930;2023-08-21T08:52:09;23.90;99.90
19945;DHT22;10134;50.952;6.930;2023-08-21T08:54:38;23.90;99.90
19945;DHT22;10134;50.952;6.930;2023-08-21T08:57:05;23.90;99.90
19945;DHT22;10134;50.952;6.930;2023-08-21T08:59:33;23.90;99.90
19945;DHT22;10134;50.952;6.930;2023-08-21T09:02:00;23.90;99.90
19945;DHT22;10134;50.952;6.930;2023-08-21T09:04:28;23.90;99.90
19945;DHT22;10134;50.952;6.930;2023-08-21T09:07:11;23.90;99.90
19945;DHT22;10134;50.952;6.930;2023-08-21T09:09:40;23.90;99.90
19945;DHT22;10134;50.952;6.930;2023-08-21T09:12:11;23.90;99.90
19945;DHT22;10134;50.952;6.930;2023-08-21T09:14:42;24.00;99.90
19945;DHT22;10134;50.952;6.930;2023-08-21T09:17:09;24.00;99.90
19945;DHT22;10134;50.952;6.930;2023-08-21T09:19:37;24.00;99.90
19945;DHT22;10134;50.952;6.930;2023-08-21T09:24:37;24.10;99.90
19945;DHT22;10134;50.952;6.930;2023-08-21T09:27:13;24.10;99.90
19945;DHT22;10134;50.952;6.930;2023-08-21T09:29:42;24.10;99.90
19945;DHT22;10134;50.952;6.930;2023-08-21T09:32:09;24.20;99.90
19945;DHT22;10134;50.952;6.930;2023-08-21T09:34:37;24.20;99.90
19945;DHT22;10134;50.952;6.930;2023-08-21T09:37:06;24.20;99.90
19945;DHT22;10134;50.952;6.930;2023-08-21T09:39:35;24.20;99.90
19945;DHT22;10134;50.952;6.930;2023-08-21T09:42:06;24.30;99.90
19945;DHT22;10134;50.952;6.930;2023-08-21T09:44:41;24.30;99.90
19945;DHT22;10134;50.952;6.930;2023-08-21T09:47:11;24.30;99.90
19945;DHT22;10134;50.952;6.930;2023-08-21T09:49:39;24.40;99.90
19945;DHT22;10134;50.952;6.930;2023-08-21T09:52:07;24.40;99.90
19945;DHT22;10134;50.952;6.930;2023-08-21T09:54:38;24.40;99.90
19945;DHT22;10134;50.952;6.930;2023-08-21T09:57:05;24.50;99.90
19945;DHT22;10134;50.952;6.930;2023-08-21T09:59:33;24.50;99.90
19945;DHT22;10134;50.952;6.930;2023-08-21T10:02:01;24.50;99.90
19945;DHT22;10134;50.952;6.930;2023-08-21T10:04:32;24.60;99.90
19945;DHT22;10134;50.952;6.930;2023-08-21T10:07:02;24.60;99.90
19945;DHT22;10134;50.952;6.930;2023-08-21T10:09:33;24.60;99.90
19945;DHT22;10134;50.952;6.930;2023-08-21T10:12:01;24.60;99.90
19945;DHT22;10134;50.952;6.930;2023-08-21T10:14:29;24.70;99.90
19945;DHT22;10134;50.952;6.930;2023-08-21T10:16:56;24.70;99.90
19945;DHT22;10134;50.952;6.930;2023-08-21T10:19:30;24.70;99.90
19945;DHT22;10134;50.952;6.930;2023-08-21T10:21:58;24.80;99.90
19945;DHT22;10134;50.952;6.930;2023-08-21T10:24:28;24.80;99.90
19945;DHT22;10134;50.952;6.930;2023-08-21T10:26:58;24.80;99.90
19945;DHT22;10134;50.952;6.930;2023-08-21T10:29:27;24.80;99.90
19945;DHT22;10134;50.952;6.930;2023-08-21T10:32:12;24.80;99.90
19945;DHT22;10134;50.952;6.930;2023-08-21T10:34:51;24.90;99.90
19945;DHT22;10134;50.952;6.930;2023-08-21T10:37:20;24.90;99.90
19945;DHT22;10134;50.952;6.930;2023-08-21T10:39:56;24.90;99.90
19945;DHT22;10134;50.952;6.930;2023-08-21T10:42:40;25.00;99.90
19945;DHT22;10134;50.952;6.930;2023-08-21T10:45:13;25.10;99.90
19945;DHT22;10134;50.952;6.930;2023-08-21T10:47:40;25.10;99.90
19945;DHT22;10134;50.952;6.930;2023-08-21T10:50:08;25.10;99.90
19945;DHT22;10134;50.952;6.930;2023-08-21T10:52:39;25.20;99.90
19945;DHT22;10134;50.952;6.930;2023-08-21T10:55:13;25.20;99.90
19945;DHT22;10134;50.952;6.930;2023-08-21T10:57:41;25.30;99.90
19945;DHT22;10134;50.952;6.930;2023-08-21T11:00:14;25.30;99.90
19945;DHT22;10134;50.952;6.930;2023-08-21T11:02:43;25.30;99.90
19945;DHT22;10134;50.952;6.930;2023-08-21T11:05:12;25.30;99.90
19945;DHT22;10134;50.952;6.930;2023-08-21T11:07:44;25.40;99.90
19945;DHT22;10134;50.952;6.930;2023-08-21T11:10:17;25.40;99.90
19945;DHT22;10134;50.952;6.930;2023-08-21T11:12:55;25.50;99.90
19945;DHT22;10134;50.952;6.930;2023-08-21T11:15:25;25.50;99.90
19945;DHT22;10134;50.952;6.930;2023-08-21T11:18:01;25.60;99.90
19945;DHT22;10134;50.952;6.930;2023-08-21T11:20:35;25.60;99.90
19945;DHT22;10134;50.952;6.930;2023-08-21T11:23:04;25.70;99.90
19945;DHT22;10134;50.952;6.930;2023-08-21T11:25:37;25.70;99.90
19945;DHT22;10134;50.952;6.930;2023-08-21T11:28:05;25.80;99.90
19945;DHT22;10134;50.952;6.930;2023-08-21T11:30:36;25.80;99.90
19945;DHT22;10134;50.952;6.930;2023-08-21T11:33:13;25.90;99.90
19945;DHT22;10134;50.952;6.930;2023-08-21T11:35:41;25.90;99.90
19945;DHT22;10134;50.952;6.930;2023-08-21T11:38:19;26.00;99.90
19945;DHT22;10134;50.952;6.930;2023-08-21T11:40:58;26.00;99.90
19945;DHT22;10134;50.952;6.930;2023-08-21T11:43:36;26.10;99.90
19945;DHT22;10134;50.952;6.930;2023-08-21T11:46:04;26.10;99.90
19945;DHT22;10134;50.952;6.930;2023-08-21T11:48:32;26.10;99.90
19945;DHT22;10134;50.952;6.930;2023-08-21T11:51:00;26.20;99.90
19945;DHT22;10134;50.952;6.930;2023-08-21T11:53:32;26.20;99.90
19945;DHT22;10134;50.952;6.930;2023-08-21T11:56:01;26.30;99.90
19945;DHT22;10134;50.952;6.930;2023-08-21T11:58:28;26.30;99.90
19945;DHT22;10134;50.952;6.930;2023-08-21T12:01:03;26.30;99.90
19945;DHT22;10134;50.952;6.930;2023-08-21T12:03:38;26.40;99.90
19945;DHT22;10134;50.952;6.930;2023-08-21T12:06:07;26.50;99.90
19945;DHT22;10134;50.952;6.930;2023-08-21T12:08:36;26.50;99.90
19945;DHT22;10134;50.952;6.930;2023-08-21T12:11:03;26.50;99.90
19945;DHT22;10134;50.952;6.930;2023-08-21T12:13:31;26.60;99.90
19945;DHT22;10134;50.952;6.930;2023-08-21T12:16:02;26.60;99.90
19945;DHT22;10134;50.952;6.930;2023-08-21T12:18:30;26.70;99.90
19945;DHT22;10134;50.952;6.930;2023-08-21T12:20:57;26.70;99.90
19945;DHT22;10134;50.952;6.930;2023-08-21T12:23:28;26.80;99.90
19945;DHT22;10134;50.952;6.930;2023-08-21T12:25:55;26.80;99.90
19945;DHT22;10134;50.952;6.930;2023-08-21T12:28:22;26.80;99.90
19945;DHT22;10134;50.952;6.930;2023-08-21T12:30:50;26.90;99.90
19945;DHT22;10134;50.952;6.930;2023-08-21T12:33:17;26.90;99.90
19945;DHT22;10134;50.952;6.930;2023-08-21T12:35:51;26.90;99.90
19945;DHT22;10134;50.952;6.930;2023-08-21T12:38:18;26.90;99.90
19945;DHT22;10134;50.952;6.930;2023-08-21T12:40:47;26.90;99.90
19945;DHT22;10134;50.952;6.930;2023-08-21T12:43:14;26.90;99.90
19945;DHT22;10134;50.952;6.930;2023-08-21T12:45:42;27.00;99.90
19945;DHT22;10134;50.952;6.930;2023-08-21T12:48:09;27.00;99.90
19945;DHT22;10134;50.952;6.930;2023-08-21T12:50:36;27.00;99.90
19945;DHT22;10134;50.952;6.930;2023-08-21T12:53:04;27.00;99.90
19945;DHT22;10134;50.952;6.930;2023-08-21T12:55:31;27.00;99.90
19945;DHT22;10134;50.952;6.930;2023-08-21T12:57:58;27.10;99.90
19945;DHT22;10134;50.952;6.930;2023-08-21T13:00:25;27.10;99.90
19945;DHT22;10134;50.952;6.930;2023-08-21T13:02:53;27.20;99.90
19945;DHT22;10134;50.952;6.930;2023-08-21T13:05:20;27.20;99.90
19945;DHT22;10134;50.952;6.930;2023-08-21T13:07:48;27.40;99.90
19945;DHT22;10134;50.952;6.930;2023-08-21T13:10:15;27.90;99.90
19945;DHT22;10134;50.952;6.930;2023-08-21T13:12:42;28.40;99.90
19945;DHT22;10134;50.952;6.930;2023-08-21T13:15:10;29.10;99.90
19945;DHT22;10134;50.952;6.930;2023-08-21T13:17:38;29.90;99.90
19945;DHT22;10134;50.952;6.930;2023-08-21T13:20:06;30.60;99.90
19945;DHT22;10134;50.952;6.930;2023-08-21T13:22:47;31.10;99.90
19945;DHT22;10134;50.952;6.930;2023-08-21T13:25:17;31.60;98.20
19945;DHT22;10134;50.952;6.930;2023-08-21T13:27:44;32.20;95.70
19945;DHT22;10134;50.952;6.930;2023-08-21T13:30:12;32.70;95.10
19945;DHT22;10134;50.952;6.930;2023-08-21T13:32:40;33.30;93.60
19945;DHT22;10134;50.952;6.930;2023-08-21T13:35:08;33.70;91.50
19945;DHT22;10134;50.952;6.930;2023-08-21T13:37:39;34.30;89.70
19945;DHT22;10134;50.952;6.930;2023-08-21T13:40:07;34.70;82.90
19945;DHT22;10134;50.952;6.930;2023-08-21T13:42:41;34.80;83.20
19945;DHT22;10134;50.952;6.930;2023-08-21T13:45:10;34.90;82.70
19945;DHT22;10134;50.952;6.930;2023-08-21T13:47:41;35.30;81.90
19945;DHT22;10134;50.952;6.930;2023-08-21T13:50:10;35.80;77.90
19945;DHT22;10134;50.952;6.930;2023-08-21T13:52:37;36.40;77.80
19945;DHT22;10134;50.952;6.930;2023-08-21T13:55:08;36.70;72.10
19945;DHT22;10134;50.952;6.930;2023-08-21T13:57:36;37.10;72.00
19945;DHT22;10134;50.952;6.930;2023-08-21T14:00:07;37.70;71.20
19945;DHT22;10134;50.952;6.930;2023-08-21T14:02:35;38.10;69.00
19945;DHT22;10134;50.952;6.930;2023-08-21T14:05:03;38.60;67.40
19945;DHT22;10134;50.952;6.930;2023-08-21T14:07:32;38.90;66.60
19945;DHT22;10134;50.952;6.930;2023-08-21T14:10:00;39.30;64.30
19945;DHT22;10134;50.952;6.930;2023-08-21T14:12:29;39.50;63.00
19945;DHT22;10134;50.952;6.930;2023-08-21T14:14:58;39.80;62.20
19945;DHT22;10134;50.952;6.930;2023-08-21T14:17:27;40.00;61.50
19945;DHT22;10134;50.952;6.930;2023-08-21T14:19:54;40.30;60.60
19945;DHT22;10134;50.952;6.930;2023-08-21T14:22:22;40.30;59.60
19945;DHT22;10134;50.952;6.930;2023-08-21T14:24:50;40.50;58.60
19945;DHT22;10134;50.952;6.930;2023-08-21T14:27:17;40.40;58.40
19945;DHT22;10134;50.952;6.930;2023-08-21T14:29:44;40.40;56.90
19945;DHT22;10134;50.952;6.930;2023-08-21T14:32:13;40.20;58.00
19945;DHT22;10134;50.952;6.930;2023-08-21T14:34:41;40.00;58.10
19945;DHT22;10134;50.952;6.930;2023-08-21T14:37:08;39.40;57.10
19945;DHT22;10134;50.952;6.930;2023-08-21T14:39:38;39.10;58.80
19945;DHT22;10134;50.952;6.930;2023-08-21T14:42:05;38.80;59.40
19945;DHT22;10134;50.952;6.930;2023-08-21T14:44:32;38.40;59.40
19945;DHT22;10134;50.952;6.930;2023-08-21T14:47:00;37.90;60.50
19945;DHT22;10134;50.952;6.930;2023-08-21T14:49:31;37.40;60.80
19945;DHT22;10134;50.952;6.930;2023-08-21T14:51:59;36.90;62.00
19945;DHT22;10134;50.952;6.930;2023-08-21T14:54:26;36.40;62.70
19945;DHT22;10134;50.952;6.930;2023-08-21T14:56:53;36.00;62.50
19945;DHT22;10134;50.952;6.930;2023-08-21T14:59:21;35.70;63.60
19945;DHT22;10134;50.952;6.930;2023-08-21T15:01:48;35.40;64.50
19945;DHT22;10134;50.952;6.930;2023-08-21T15:04:15;35.10;65.50
19945;DHT22;10134;50.952;6.930;2023-08-21T15:06:43;34.70;66.00
19945;DHT22;10134;50.952;6.930;2023-08-21T15:09:10;34.50;66.40
19945;DHT22;10134;50.952;6.930;2023-08-21T15:11:37;34.30;66.60
19945;DHT22;10134;50.952;6.930;2023-08-21T15:14:09;34.10;66.90
19945;DHT22;10134;50.952;6.930;2023-08-21T15:16:38;34.00;67.30
19945;DHT22;10134;50.952;6.930;2023-08-21T15:19:05;33.80;67.50
19945;DHT22;10134;50.952;6.930;2023-08-21T15:21:33;33.60;68.20
19945;DHT22;10134;50.952;6.930;2023-08-21T15:24:01;33.30;71.20
19945;DHT22;10134;50.952;6.930;2023-08-21T15:26:31;33.40;68.80
19945;DHT22;10134;50.952;6.930;2023-08-21T15:29:00;33.30;68.20
19945;DHT22;10134;50.952;6.930;2023-08-21T15:31:27;33.20;69.30
19945;DHT22;10134;50.952;6.930;2023-08-21T15:33:55;33.10;69.50
19945;DHT22;10134;50.952;6.930;2023-08-21T15:36:22;32.90;69.70
19945;DHT22;10134;50.952;6.930;2023-08-21T15:38:50;32.80;69.90
19945;DHT22;10134;50.952;6.930;2023-08-21T15:41:17;32.70;70.80
19945;DHT22;10134;50.952;6.930;2023-08-21T15:43:44;32.70;70.40
19945;DHT22;10134;50.952;6.930;2023-08-21T17:44:58;28.10;90.00